Latest Weather Observations for Gladstone

IDQ60801

Issued at 2:02 pm EST Wednesday 4 May 2016 (issued every 30 minutes, with the page automatically refreshed every 10 minutes)

About weather observations | Map of weather stations | Latest weather observations for QLD | Other Formats
Station Details ID: 039123 Name: GLADSTONE RADAR Lat: -23.86 Lon: 151.26 Height: 74.5 m
Data from the previous 72 hours. | See also: Recent months at Gladstone
Date/Time
EST
Temp
°C
App
Temp
°C
Dew
Point
Rel
Hum
%
Delta-T
°C
Wind Press
QNH
hPa
Press
MSL
hPa
Rain
since 9 am
mm
Dir
 
Spd
km/h
Gust
km/h
Spd
kts
Gust
kts
04/02:00pm 26.1 30.1 21.3 75 3.2 N 2 7 1 4 1014.0 1013.7 20.2
04/01:30pm 25.4 28.3 21.1 77 2.8 NNE 7 11 4 6 1014.2 1013.9 20.2
04/01:00pm 26.8 30.6 20.9 70 3.9 ESE 2 7 1 4 1014.4 1014.1 20.2
04/12:30pm 25.2 29.2 21.3 79 2.6 S 2 7 1 4 1014.8 1014.5 20.2
04/12:00pm 24.3 27.4 21.0 82 2.2 SSE 6 9 3 5 1015.3 1015.0 20.2
04/11:30am 24.0 27.5 22.8 93 0.8 SE 9 15 5 8 1015.9 1015.7 20.2
04/11:00am 21.8 23.8 21.5 98 0.2 SE 13 19 7 10 1016.4 1016.2 20.2
04/10:30am 21.2 23.9 20.7 97 0.3 S 7 11 4 6 1017.1 1016.9 20.0
04/10:00am 21.1 22.9 20.4 96 0.5 SW 11 20 6 11 1017.1 1016.9 18.0
04/09:30am 23.3 25.8 21.0 87 1.5 WSW 9 15 5 8 1017.1 1016.9 2.0
04/09:00am 24.9 27.7 20.8 78 2.7 SW 7 9 4 5 1016.6 1016.4 0.0
04/08:30am 24.8 28.2 21.7 83 2.1 SE 6 9 3 5 1016.3 1016.1 0.0
04/08:00am 23.6 26.8 21.3 87 1.5 SW 6 7 3 4 1015.9 1015.7 0.0
04/07:30am 23.3 26.7 21.6 90 1.1 WSW 6 9 3 5 1015.7 1015.5 0.0
04/07:00am 23.0 26.2 21.6 92 0.9 WSW 7 9 4 5 1015.1 1014.8 0.0
04/06:30am 23.0 26.5 21.8 93 0.8 WSW 6 9 3 5 1014.7 1014.4 0.0
04/06:00am 23.1 26.3 21.7 92 0.9 WSW 7 9 4 5 1014.4 1014.1 0.0
04/05:30am 23.3 26.7 21.7 91 1.1 WSW 6 9 3 5 1014.0 1013.7 0.0
04/05:00am 23.3 26.5 21.6 90 1.1 WSW 7 9 4 5 1013.6 1013.3 0.0
04/04:30am 23.4 26.6 21.3 88 1.4 WSW 6 7 3 4 1013.6 1013.3 0.0
04/04:00am 23.6 26.8 21.3 87 1.5 WSW 6 7 3 4 1013.4 1013.1 0.0
04/03:30am 23.7 26.9 21.2 86 1.6 W 6 7 3 4 1013.2 1012.9 0.0
04/03:00am 23.6 27.1 22.2 92 0.9 S 7 9 4 5 1013.0 1012.7 0.0
04/02:30am 23.6 28.7 22.6 94 0.7 CALM 0 0 0 0 1013.1 1012.8 0.0
04/02:00am 23.6 28.1 22.2 92 0.9 W 2 6 1 3 1013.4 1013.1 0.0
04/01:30am 23.8 27.6 22.4 92 0.9 NW 6 9 3 5 1013.4 1013.1 0.0
04/01:00am 23.9 28.4 22.2 90 1.1 W 2 7 1 4 1013.5 1013.2 0.0
04/12:30am 24.1 27.9 22.4 90 1.1 WNW 6 9 3 5 1013.4 1013.1 0.0
04/12:00am 24.2 27.8 22.3 89 1.3 NW 7 11 4 6 1013.5 1013.2 0.0
 
Date/Time
EST
Temp
°C
App
Temp
°C
Dew
Point
Rel
Hum
%
Delta-T
°C
Wind Press
QNH
hPa
Press
MSL
hPa
Rain
since 9 am
mm
Dir
 
Spd
km/h
Gust
km/h
Spd
kts
Gust
kts
03/11:30pm 24.2 27.5 21.9 87 1.5 WNW 7 13 4 7 1013.8 1013.5 0.0
03/11:00pm 24.2 27.7 21.9 87 1.5 WNW 6 11 3 6 1014.0 1013.7 0.0
03/10:30pm 24.2 27.8 22.1 88 1.4 WNW 6 9 3 5 1014.1 1013.8 0.0
03/10:00pm 24.3 27.7 22.0 87 1.5 WNW 7 17 4 9 1014.2 1013.9 0.0
03/09:30pm 24.4 27.7 21.9 86 1.7 NW 7 13 4 7 1014.3 1014.0 0.0
03/09:00pm 24.7 27.4 21.4 82 2.2 NNW 9 13 5 7 1014.3 1014.0 0.0
03/08:30pm 24.9 27.7 21.6 82 2.2 NNW 9 15 5 8 1014.4 1014.1 0.0
03/08:00pm 24.9 27.9 21.2 80 2.4 NNW 7 11 4 6 1014.3 1014.0 0.0
03/07:30pm 25.0 28.2 21.3 80 2.5 NNW 6 11 3 6 1014.2 1013.9 0.0
03/07:00pm 24.8 27.9 21.5 82 2.2 N 7 11 4 6 1013.5 1013.2 0.0
03/06:30pm 25.2 28.2 21.3 79 2.6 NNE 7 11 4 6 1013.1 1012.8 0.0
03/06:00pm 25.8 28.5 20.6 73 3.4 NNW 7 11 4 6 1012.6 1012.3 0.0
03/05:30pm 25.7 28.8 21.1 76 3.0 N 6 9 3 5 1012.2 1011.9 0.0
03/05:00pm 26.3 29.2 21.1 73 3.4 NNE 7 11 4 6 1011.9 1011.6 0.0
03/04:30pm 26.5 29.3 20.8 71 3.8 NNE 7 15 4 8 1011.8 1011.5 0.0
03/04:00pm 26.9 30.0 21.0 70 3.9 NNE 6 13 3 7 1011.5 1011.2 0.0
03/03:30pm 26.5 29.4 21.7 75 3.2 NE 9 15 5 8 1011.5 1011.2 0.0
03/03:00pm 27.1 29.5 20.9 69 4.1 NE 9 20 5 11 1011.6 1011.3 0.0
03/02:30pm 27.3 29.2 21.3 69 4.0 NE 13 20 7 11 1011.5 1011.2 0.0
03/02:00pm 27.7 29.6 21.3 68 4.3 NE 13 20 7 11 1011.8 1011.5 0.0
03/01:30pm 28.9 30.4 20.6 61 5.5 NE 13 20 7 11 1012.0 1011.7 0.0
03/01:00pm 28.3 29.7 21.1 65 4.8 NE 15 20 8 11 1012.4 1012.1 0.0
03/12:30pm 29.6 31.2 21.5 61 5.4 NE 15 20 8 11 1012.8 1012.5 0.0
03/12:00pm 29.3 30.9 20.7 59 5.7 NE 13 20 7 11 1013.3 1013.0 0.0
03/11:30am 29.9 32.9 21.3 60 5.8 NE 7 13 4 7 1014.0 1013.7 0.0
03/11:00am 29.9 32.3 21.6 61 5.6 NE 11 17 6 9 1014.4 1014.1 0.0
03/10:30am 29.3 31.6 21.3 62 5.4 NE 11 17 6 9 1015.0 1014.7 0.0
03/10:00am 28.6 31.3 21.4 65 4.8 ENE 9 15 5 8 1015.4 1015.2 0.0
03/09:30am 28.3 31.2 21.1 65 4.8 NNE 7 15 4 8 1015.6 1015.4 0.0
03/09:00am 25.8 29.1 20.8 74 3.3 NNW 4 9 2 5 1015.7 1015.5 0.0
03/08:30am 24.3 27.4 20.2 78 2.7 WNW 4 9 2 5 1015.5 1015.3 0.0
03/08:00am 23.4 27.4 20.5 84 1.9 CALM 0 0 0 0 1015.2 1014.9 0.0
03/07:30am 22.7 26.3 20.6 88 1.4 ENE 2 7 1 4 1015.1 1014.8 0.0
03/07:00am 22.0 24.8 19.7 87 1.5 SW 4 6 2 3 1015.1 1014.8 0.0
03/06:30am 21.7 23.9 19.6 88 1.3 WSW 7 9 4 5 1014.7 1014.4 0.0
03/06:00am 21.7 24.0 19.4 87 1.5 WSW 6 9 3 5 1014.4 1014.1 0.0
03/05:30am 22.1 24.8 19.5 85 1.7 S 4 7 2 4 1014.1 1013.8 0.0
03/05:00am 22.3 24.1 19.5 84 1.8 SE 9 13 5 7 1013.7 1013.4 0.0
03/04:30am 22.8 24.1 19.4 81 2.2 SSE 11 15 6 8 1013.7 1013.4 0.0
03/04:00am 22.9 23.9 19.5 81 2.2 SSW 13 19 7 10 1013.8 1013.5 0.0
03/03:30am 23.3 25.4 20.1 82 2.1 SW 9 15 5 8 1014.0 1013.7 0.0
03/03:00am 23.3 25.8 21.0 87 1.5 SW 9 13 5 7 1014.2 1013.9 0.0
03/02:30am 23.0 25.8 21.6 92 0.9 SW 9 13 5 7 1014.5 1014.2 0.0
03/02:00am 23.3 26.7 21.7 91 1.1 W 6 9 3 5 1014.4 1014.1 0.0
03/01:30am 23.1 26.3 22.3 95 0.5 WSW 9 15 5 8 1015.1 1014.8 0.0
03/01:00am 23.3 26.8 22.8 97 0.3 WSW 9 13 5 7 1015.5 1015.3 0.0
03/12:30am 23.2 27.0 22.7 97 0.3 SW 7 9 4 5 1015.5 1015.3 0.0
03/12:00am 23.4 27.5 22.9 97 0.3 NNW 6 9 3 5 1015.5 1015.3 0.0
 
Date/Time
EST
Temp
°C
App
Temp
°C
Dew
Point
Rel
Hum
%
Delta-T
°C
Wind Press
QNH
hPa
Press
MSL
hPa
Rain
since 9 am
mm
Dir
 
Spd
km/h
Gust
km/h
Spd
kts
Gust
kts
02/11:30pm 23.3 27.4 23.0 98 0.2 WNW 6 7 3 4 1015.8 1015.6 0.0
02/11:00pm 23.1 27.0 22.6 97 0.3 W 6 7 3 4 1015.8 1015.6 0.0
02/10:30pm 23.3 27.2 22.6 96 0.5 NNE 6 9 3 5 1015.7 1015.5 0.0
02/10:00pm 23.4 27.4 22.7 96 0.5 NNE 6 7 3 4 1015.8 1015.6 0.0
02/09:30pm 23.4 27.4 22.7 96 0.5 NNE 6 9 3 5 1015.7 1015.5 0.0
02/09:00pm 23.4 27.0 22.4 94 0.7 NNE 7 9 4 5 1015.7 1015.5 0.0
02/08:30pm 23.7 27.7 22.7 94 0.7 N 6 11 3 6 1015.9 1015.7 0.0
02/08:00pm 24.0 27.9 23.0 94 0.7 NNW 7 13 4 7 1015.5 1015.3 0.0
02/07:30pm 23.9 27.6 22.5 92 0.9 N 7 13 4 7 1015.3 1015.0 0.0
02/07:00pm 24.0 27.5 22.1 89 1.3 NNE 7 9 4 5 1015.0 1014.7 0.0
02/06:30pm 24.0 27.0 21.3 85 1.8 NNE 7 11 4 6 1014.6 1014.3 0.0
02/06:00pm 24.5 27.2 21.4 83 2.1 NNE 9 13 5 7 1014.3 1014.0 0.0
02/05:30pm 25.0 27.9 21.7 82 2.2 NNE 9 15 5 8 1014.0 1013.7 0.0
02/05:00pm 25.8 28.2 21.5 77 2.9 NE 11 17 6 9 1013.6 1013.3 0.0
02/04:30pm 26.9 29.2 21.4 72 3.7 NE 11 15 6 8 1013.2 1012.9 0.0
02/04:00pm 27.5 29.8 21.3 69 4.1 NE 11 20 6 11 1013.0 1012.7 0.0
02/03:30pm 27.7 29.2 21.3 68 4.3 NE 15 22 8 12 1012.9 1012.6 0.0
02/03:00pm 28.9 30.2 21.7 65 4.8 NE 17 22 9 12 1013.0 1012.7 0.0
02/02:30pm 30.0 32.2 21.1 59 6.0 NE 11 22 6 12 1013.2 1012.9 0.0
02/02:00pm 29.8 31.5 21.7 61 5.5 NE 15 20 8 11 1013.5 1013.2 0.0
02/01:30pm 30.1 31.0 20.9 57 6.1 NE 17 22 9 12 1013.5 1013.2 0.0
02/01:00pm 30.5 32.2 21.6 59 6.0 NE 15 22 8 12 1013.9 1013.6 0.0
02/12:30pm 31.4 34.0 22.7 60 6.0 NE 13 22 7 12 1014.5 1014.2 0.0
02/12:00pm 33.1 34.9 19.6 45 8.9 NE 9 19 5 10 1014.9 1014.6 0.0
02/11:30am 31.7 33.7 20.0 50 7.8 NNE 9 15 5 8 1015.4 1015.2 0.0
02/11:00am 29.9 32.8 21.0 59 5.9 NNW 7 15 4 8 1015.8 1015.6 0.0
02/10:30am 29.4 32.7 21.4 62 5.4 NW 6 11 3 6 1016.3 1016.1 0.0
02/10:00am 27.4 30.3 21.0 68 4.2 NW 7 11 4 6 1016.7 1016.5 0.0
02/09:30am 26.8 29.9 21.1 71 3.8 WNW 6 9 3 5 1017.0 1016.8 0.0
02/09:00am 25.9 29.9 22.0 79 2.6 W 4 9 2 5 1017.1 1016.9 0.0
02/08:30am 24.5 28.5 22.0 86 1.7 WSW 4 9 2 5 1017.0 1016.8 0.0
02/08:00am 23.6 28.1 22.2 92 0.9 WSW 2 9 1 5 1017.0 1016.8 0.0
02/07:30am 22.9 27.0 22.2 96 0.5 S 4 6 2 3 1016.7 1016.5 0.0
02/07:00am 22.5 27.3 22.2 98 0.2 CALM 0 0 0 0 1016.5 1016.3 0.0
02/06:30am 22.1 26.2 21.6 97 0.3 N 2 7 1 4 1016.3 1016.1 0.0
02/06:00am 22.3 25.7 22.0 98 0.2 SW 7 11 4 6 1016.0 1015.8 0.0
02/05:30am 22.3 25.7 22.0 98 0.2 SW 7 13 4 7 1015.7 1015.5 0.0
02/05:00am 22.3 25.7 22.0 98 0.2 WSW 7 9 4 5 1015.3 1015.0 0.0
02/04:30am 22.2 25.5 21.9 98 0.2 WSW 7 9 4 5 1015.0 1014.7 0.0
02/04:00am 22.3 25.8 21.8 97 0.3 W 6 7 3 4 1014.8 1014.5 0.0
02/03:30am 22.5 26.5 22.0 97 0.3 NNW 4 6 2 3 1014.8 1014.5 0.0
02/03:00am 22.6 26.1 21.9 96 0.5 NE 6 7 3 4 1014.7 1014.4 0.0
02/02:30am 22.6 26.9 21.9 96 0.5 SW 2 6 1 3 1015.0 1014.7 0.0
02/02:00am 22.5 26.1 22.0 97 0.3 WSW 6 7 3 4 1015.4 1015.2 0.0
02/01:30am 22.6 26.1 21.9 96 0.5 WSW 6 7 3 4 1015.8 1015.6 0.0
02/01:00am 22.8 26.4 22.3 97 0.3 WSW 7 9 4 5 1016.1 1015.9 0.0
02/12:30am 23.1 27.7 22.4 96 0.5 W 2 7 1 4 1016.3 1016.1 0.0
02/12:00am 23.4 27.4 22.7 96 0.5 WSW 6 9 3 5 1016.7 1016.5 0.0
 
Date/Time
EST
Temp
°C
App
Temp
°C
Dew
Point
Rel
Hum
%
Delta-T
°C
Wind Press
QNH
hPa
Press
MSL
hPa
Rain
since 9 am
mm
Dir
 
Spd
km/h
Gust
km/h
Spd
kts
Gust
kts
01/11:30pm 23.4 27.9 22.9 97 0.3 SW 4 7 2 4 1016.9 1016.7 0.0
01/11:00pm 23.6 27.6 23.1 97 0.3 NNW 7 13 4 7 1016.9 1016.7 0.0
01/10:30pm 23.2 27.2 22.7 97 0.3 WNW 6 7 3 4 1017.1 1016.9 0.0
01/10:00pm 23.2 28.1 22.4 95 0.5 CALM 0 4 0 2 1016.9 1016.7 0.0
01/09:30pm 23.5 27.3 22.7 95 0.5 NNW 7 13 4 7 1017.0 1016.8 0.0
01/09:00pm 23.7 27.5 22.7 94 0.7 NNW 7 11 4 6 1017.2 1017.0 0.0
01/08:30pm 23.8 27.8 22.8 94 0.7 N 6 9 3 5 1017.5 1017.3 0.0
01/08:00pm 23.9 27.8 22.9 94 0.7 N 7 11 4 6 1017.3 1017.1 0.0
01/07:30pm 23.7 27.4 22.5 93 0.8 NNE 7 11 4 6 1017.0 1016.8 0.0
01/07:00pm 23.9 27.2 22.5 92 0.9 NE 9 13 5 7 1016.5 1016.3 0.0
01/06:30pm 24.0 27.2 22.4 91 1.1 NE 9 13 5 7 1016.4 1016.2 0.0
01/06:00pm 24.1 27.3 22.4 90 1.1 NE 9 13 5 7 1016.1 1015.9 0.0
01/05:30pm 24.4 27.5 22.1 87 1.5 NE 9 13 5 7 1016.0 1015.8 0.0
01/05:00pm 24.8 27.5 22.1 85 1.8 NE 11 19 6 10 1015.6 1015.4 0.0
01/04:30pm 25.5 27.7 21.8 80 2.5 NE 13 19 7 10 1015.5 1015.3 0.0
01/04:00pm 26.9 29.1 21.9 74 3.4 NE 13 19 7 10 1015.1 1014.8 0.0
01/03:30pm 27.2 29.0 21.9 73 3.6 NE 15 22 8 12 1014.9 1014.6 0.0
01/03:00pm 27.1 29.3 21.8 73 3.6 NE 13 24 7 13 1014.8 1014.5 0.0
01/02:30pm 28.1 29.8 21.6 68 4.4 NE 15 22 8 12 1014.7 1014.4 0.0

Other Formats:

Comma delimited format used in spreadsheet applications
http://www.bom.gov.au/fwo/IDQ60801/IDQ60801.94380.axf

JavaScript Object Notation format (JSON) in row-major order
http://www.bom.gov.au/fwo/IDQ60801/IDQ60801.94380.json